sensor_id;sensor_type;location;lat;lon;timestamp;pressure;altitude;pressure_sealevel;temperature;humidity
43147;BME280;28752;48.266;7.402;2023-08-12T00:02:32;99626.59;;;25.11;60.74
43147;BME280;28752;48.266;7.402;2023-08-12T00:04:58;99624.09;;;25.10;61.07
43147;BME280;28752;48.266;7.402;2023-08-12T00:07:23;99622.47;;;25.09;61.19
43147;BME280;28752;48.266;7.402;2023-08-12T00:09:49;99614.91;;;25.11;61.61
43147;BME280;28752;48.266;7.402;2023-08-12T00:12:14;99613.88;;;25.12;61.36
43147;BME280;28752;48.266;7.402;2023-08-12T00:14:40;99620.09;;;25.12;61.83
43147;BME280;28752;48.266;7.402;2023-08-12T00:17:05;99614.34;;;25.09;61.56
43147;BME280;28752;48.266;7.402;2023-08-12T00:19:31;99620.81;;;25.08;61.37
43147;BME280;28752;48.266;7.402;2023-08-12T00:21:56;99621.19;;;25.11;61.51
43147;BME280;28752;48.266;7.402;2023-08-12T00:24:22;99616.69;;;25.05;61.63
43147;BME280;28752;48.266;7.402;2023-08-12T00:26:47;99611.75;;;25.02;61.76
43147;BME280;28752;48.266;7.402;2023-08-12T00:29:12;99612.59;;;25.03;61.28
43147;BME280;28752;48.266;7.402;2023-08-12T00:31:38;99615.63;;;24.94;61.15
43147;BME280;28752;48.266;7.402;2023-08-12T00:34:03;99613.72;;;25.18;60.79
43147;BME280;28752;48.266;7.402;2023-08-12T00:36:28;99610.31;;;25.23;60.71
43147;BME280;28752;48.266;7.402;2023-08-12T00:38:54;99610.31;;;25.23;60.64
43147;BME280;28752;48.266;7.402;2023-08-12T00:41:19;99605.72;;;25.24;61.20
43147;BME280;28752;48.266;7.402;2023-08-12T00:43:44;99607.16;;;25.03;61.91
43147;BME280;28752;48.266;7.402;2023-08-12T00:46:10;99608.59;;;24.93;62.04
43147;BME280;28752;48.266;7.402;2023-08-12T00:48:36;99603.66;;;24.90;62.11
43147;BME280;28752;48.266;7.402;2023-08-12T00:51:01;99603.66;;;24.90;62.24
43147;BME280;28752;48.266;7.402;2023-08-12T00:53:27;99585.97;;;24.76;62.35
43147;BME280;28752;48.266;7.402;2023-08-12T00:55:53;99594.00;;;24.82;61.64
43147;BME280;28752;48.266;7.402;2023-08-12T00:58:19;99589.63;;;24.70;62.16
43147;BME280;28752;48.266;7.402;2023-08-12T01:00:45;99586.53;;;24.78;61.25
43147;BME280;28752;48.266;7.402;2023-08-12T01:03:11;99581.75;;;24.80;61.13
43147;BME280;28752;48.266;7.402;2023-08-12T01:05:37;99582.78;;;24.91;60.40
43147;BME280;28752;48.266;7.402;2023-08-12T01:08:02;99577.00;;;24.99;59.05
43147;BME280;28752;48.266;7.402;2023-08-12T01:10:33;99570.06;;;25.15;57.97
43147;BME280;28752;48.266;7.402;2023-08-12T01:13:08;99569.31;;;25.43;57.36
43147;BME280;28752;48.266;7.402;2023-08-12T01:15:37;99575.59;;;25.61;56.46
43147;BME280;28752;48.266;7.402;2023-08-12T01:18:04;99566.47;;;25.79;55.72
43147;BME280;28752;48.266;7.402;2023-08-12T01:20:30;99562.13;;;25.95;55.46
43147;BME280;28752;48.266;7.402;2023-08-12T01:22:57;99567.44;;;26.01;55.28
43147;BME280;28752;48.266;7.402;2023-08-12T01:25:24;99561.72;;;26.15;55.32
43147;BME280;28752;48.266;7.402;2023-08-12T01:27:50;99546.00;;;26.17;55.24
43147;BME280;28752;48.266;7.402;2023-08-12T01:30:16;99551.34;;;26.29;54.84
43147;BME280;28752;48.266;7.402;2023-08-12T01:33:08;99557.69;;;26.34;54.60
43147;BME280;28752;48.266;7.402;2023-08-12T01:35:40;99555.13;;;26.28;54.73
43147;BME280;28752;48.266;7.402;2023-08-12T01:38:08;99558.91;;;26.27;55.03
43147;BME280;28752;48.266;7.402;2023-08-12T01:40:35;99545.34;;;26.44;54.49
43147;BME280;28752;48.266;7.402;2023-08-12T01:43:02;99547.72;;;26.40;54.97
43147;BME280;28752;48.266;7.402;2023-08-12T01:45:30;99533.59;;;26.38;54.98
43147;BME280;28752;48.266;7.402;2023-08-12T01:47:56;99533.66;;;26.43;55.21
43147;BME280;28752;48.266;7.402;2023-08-12T01:50:21;99546.41;;;26.42;55.25
43147;BME280;28752;48.266;7.402;2023-08-12T01:52:46;99546.91;;;26.39;55.57
43147;BME280;28752;48.266;7.402;2023-08-12T01:55:12;99549.31;;;26.36;55.75
43147;BME280;28752;48.266;7.402;2023-08-12T01:57:37;99537.84;;;26.34;55.90
43147;BME280;28752;48.266;7.402;2023-08-12T02:00:04;99542.22;;;26.35;55.99
43147;BME280;28752;48.266;7.402;2023-08-12T02:02:30;99541.00;;;26.42;55.75
43147;BME280;28752;48.266;7.402;2023-08-12T02:04:55;99538.28;;;26.42;55.93
43147;BME280;28752;48.266;7.402;2023-08-12T02:07:21;99538.78;;;26.39;55.97
43147;BME280;28752;48.266;7.402;2023-08-12T02:09:46;99546.41;;;26.42;56.01
43147;BME280;28752;48.266;7.402;2023-08-12T02:12:11;99530.38;;;26.41;56.11
43147;BME280;28752;48.266;7.402;2023-08-12T02:14:37;99537.63;;;26.35;56.49
43147;BME280;28752;48.266;7.402;2023-08-12T02:17:02;99539.03;;;26.38;56.41
43147;BME280;28752;48.266;7.402;2023-08-12T02:19:31;99531.34;;;26.52;56.25
43147;BME280;28752;48.266;7.402;2023-08-12T02:21:57;99533.31;;;26.56;55.77
43147;BME280;28752;48.266;7.402;2023-08-12T02:24:22;99523.63;;;26.60;55.74
43147;BME280;28752;48.266;7.402;2023-08-12T02:26:48;99526.72;;;26.52;56.00
43147;BME280;28752;48.266;7.402;2023-08-12T02:29:13;99526.91;;;26.46;56.15
43147;BME280;28752;48.266;7.402;2023-08-12T02:31:38;99524.19;;;26.46;56.30
43147;BME280;28752;48.266;7.402;2023-08-12T02:34:04;99534.06;;;26.52;56.29
43147;BME280;28752;48.266;7.402;2023-08-12T02:36:29;99545.25;;;26.55;56.27
43147;BME280;28752;48.266;7.402;2023-08-12T02:38:55;99547.41;;;26.19;57.18
43147;BME280;28752;48.266;7.402;2023-08-12T02:41:20;99538.84;;;25.82;58.31
43147;BME280;28752;48.266;7.402;2023-08-12T02:43:45;99543.84;;;25.73;58.62
43147;BME280;28752;48.266;7.402;2023-08-12T02:46:10;99549.56;;;25.60;58.78
43147;BME280;28752;48.266;7.402;2023-08-12T02:48:36;99548.81;;;25.35;59.25
43147;BME280;28752;48.266;7.402;2023-08-12T02:51:01;99561.19;;;25.19;59.85
43147;BME280;28752;48.266;7.402;2023-08-12T02:53:27;99548.84;;;25.24;59.83
43147;BME280;28752;48.266;7.402;2023-08-12T02:55:52;99549.66;;;25.24;59.49
43147;BME280;28752;48.266;7.402;2023-08-12T02:58:17;99551.91;;;25.15;59.60
43147;BME280;28752;48.266;7.402;2023-08-12T03:00:43;99558.63;;;25.13;59.30
43147;BME280;28752;48.266;7.402;2023-08-12T03:03:11;99563.59;;;25.04;59.96
43147;BME280;28752;48.266;7.402;2023-08-12T03:05:37;99571.63;;;24.87;59.99
43147;BME280;28752;48.266;7.402;2023-08-12T03:08:02;99564.66;;;25.03;59.89
43147;BME280;28752;48.266;7.402;2023-08-12T03:10:29;99562.28;;;25.07;59.83
43147;BME280;28752;48.266;7.402;2023-08-12T03:12:54;99560.28;;;25.02;59.73
43147;BME280;28752;48.266;7.402;2023-08-12T03:15:20;99566.75;;;25.13;59.28
43147;BME280;28752;48.266;7.402;2023-08-12T03:17:45;99566.16;;;25.11;59.33
43147;BME280;28752;48.266;7.402;2023-08-12T03:20:11;99568.88;;;25.11;59.28
43147;BME280;28752;48.266;7.402;2023-08-12T03:22:36;99576.28;;;25.04;59.30
43147;BME280;28752;48.266;7.402;2023-08-12T03:25:03;99582.06;;;25.07;59.48
43147;BME280;28752;48.266;7.402;2023-08-12T03:27:28;99584.06;;;25.12;59.52
43147;BME280;28752;48.266;7.402;2023-08-12T03:29:53;99568.53;;;25.07;60.15
43147;BME280;28752;48.266;7.402;2023-08-12T03:32:19;99572.44;;;24.99;60.15
43147;BME280;28752;48.266;7.402;2023-08-12T03:34:44;99568.69;;;24.89;60.08
43147;BME280;28752;48.266;7.402;2023-08-12T03:37:09;99573.25;;;24.76;60.49
43147;BME280;28752;48.266;7.402;2023-08-12T03:39:35;99574.56;;;24.74;60.56
43147;BME280;28752;48.266;7.402;2023-08-12T03:42:00;99571.50;;;24.58;60.90
43147;BME280;28752;48.266;7.402;2023-08-12T03:44:26;99569.22;;;24.55;61.16
43147;BME280;28752;48.266;7.402;2023-08-12T03:46:51;99573.00;;;24.54;60.99
43147;BME280;28752;48.266;7.402;2023-08-12T03:49:16;99571.50;;;24.58;61.51
43147;BME280;28752;48.266;7.402;2023-08-12T03:51:42;99579.38;;;24.60;61.70
43147;BME280;28752;48.266;7.402;2023-08-12T03:54:07;99568.78;;;24.58;61.44
43147;BME280;28752;48.266;7.402;2023-08-12T03:56:33;99574.09;;;24.65;61.39
43147;BME280;28752;48.266;7.402;2023-08-12T03:58:58;99567.72;;;24.59;61.72
43147;BME280;28752;48.266;7.402;2023-08-12T04:01:23;99570.66;;;24.58;61.99
43147;BME280;28752;48.266;7.402;2023-08-12T04:03:49;99569.56;;;24.47;61.83
43147;BME280;28752;48.266;7.402;2023-08-12T04:06:15;99574.28;;;24.52;61.43
43147;BME280;28752;48.266;7.402;2023-08-12T04:08:40;99564.28;;;24.52;61.33
43147;BME280;28752;48.266;7.402;2023-08-12T04:11:05;99560.16;;;24.50;61.28
43147;BME280;28752;48.266;7.402;2023-08-12T04:13:31;99558.97;;;24.45;61.51
43147;BME280;28752;48.266;7.402;2023-08-12T04:15:56;99560.03;;;24.44;61.71
43147;BME280;28752;48.266;7.402;2023-08-12T04:18:22;99553.78;;;24.44;62.43
43147;BME280;28752;48.266;7.402;2023-08-12T04:20:52;99563.44;;;24.52;61.78
43147;BME280;28752;48.266;7.402;2023-08-12T04:23:18;99564.16;;;24.47;61.55
43147;BME280;28752;48.266;7.402;2023-08-12T04:25:47;99561.84;;;24.62;61.55
43147;BME280;28752;48.266;7.402;2023-08-12T04:28:13;99558.03;;;24.52;61.54
43147;BME280;28752;48.266;7.402;2023-08-12T04:30:42;99562.72;;;24.44;61.97
43147;BME280;28752;48.266;7.402;2023-08-12T04:33:08;99560.03;;;24.44;62.68
43147;BME280;28752;48.266;7.402;2023-08-12T04:35:33;99548.97;;;24.46;62.41
43147;BME280;28752;48.266;7.402;2023-08-12T04:37:58;99560.63;;;24.46;62.96
43147;BME280;28752;48.266;7.402;2023-08-12T04:40:24;99559.69;;;24.53;62.62
43147;BME280;28752;48.266;7.402;2023-08-12T04:42:49;99556.25;;;24.45;63.04
43147;BME280;28752;48.266;7.402;2023-08-12T04:45:15;99558.97;;;24.45;63.18
43147;BME280;28752;48.266;7.402;2023-08-12T04:47:40;99559.44;;;24.42;63.45
43147;BME280;28752;48.266;7.402;2023-08-12T04:50:06;99558.63;;;24.42;63.41
43147;BME280;28752;48.266;7.402;2023-08-12T04:52:31;99562.97;;;24.43;63.82
43147;BME280;28752;48.266;7.402;2023-08-12T04:54:57;99554.84;;;24.43;63.72
43147;BME280;28752;48.266;7.402;2023-08-12T04:57:22;99562.97;;;24.43;63.85
43147;BME280;28752;48.266;7.402;2023-08-12T04:59:47;99557.22;;;24.51;63.74
43147;BME280;28752;48.266;7.402;2023-08-12T05:02:13;99559.03;;;24.69;63.34
43147;BME280;28752;48.266;7.402;2023-08-12T05:04:38;99563.59;;;24.80;62.85
43147;BME280;28752;48.266;7.402;2023-08-12T05:07:04;99555.84;;;24.84;63.28
43147;BME280;28752;48.266;7.402;2023-08-12T05:09:29;99559.00;;;24.93;63.04
43147;BME280;28752;48.266;7.402;2023-08-12T05:11:54;99551.81;;;24.98;62.32
43147;BME280;28752;48.266;7.402;2023-08-12T05:14:20;99553.09;;;24.96;61.74
43147;BME280;28752;48.266;7.402;2023-08-12T05:16:45;99548.72;;;25.07;61.62
43147;BME280;28752;48.266;7.402;2023-08-12T05:19:10;99561.44;;;25.18;62.74
43147;BME280;28752;48.266;7.402;2023-08-12T05:21:36;99560.88;;;25.16;61.71
43147;BME280;28752;48.266;7.402;2023-08-12T05:24:01;99560.25;;;25.14;61.94
43147;BME280;28752;48.266;7.402;2023-08-12T05:26:27;99550.28;;;25.14;61.82
43147;BME280;28752;48.266;7.402;2023-08-12T05:28:52;99553.91;;;25.32;61.52
43147;BME280;28752;48.266;7.402;2023-08-12T05:31:17;99550.59;;;25.42;61.39
43147;BME280;28752;48.266;7.402;2023-08-12T05:33:43;99559.91;;;25.63;60.37
43147;BME280;28752;48.266;7.402;2023-08-12T05:36:08;99551.84;;;25.80;59.60
43147;BME280;28752;48.266;7.402;2023-08-12T05:38:34;99561.13;;;25.84;58.67
43147;BME280;28752;48.266;7.402;2023-08-12T05:40:59;99550.56;;;25.70;59.34
43147;BME280;28752;48.266;7.402;2023-08-12T05:43:25;99549.88;;;25.75;59.09
43147;BME280;28752;48.266;7.402;2023-08-12T05:45:50;99547.25;;;25.80;58.84
43147;BME280;28752;48.266;7.402;2023-08-12T05:48:16;99550.31;;;26.01;58.28
43147;BME280;28752;48.266;7.402;2023-08-12T05:50:43;99562.59;;;26.20;57.97
43147;BME280;28752;48.266;7.402;2023-08-12T05:53:08;99550.88;;;25.86;58.67
43147;BME280;28752;48.266;7.402;2023-08-12T05:55:34;99554.72;;;26.19;57.85
43147;BME280;28752;48.266;7.402;2023-08-12T05:57:59;99551.75;;;26.20;57.56
43147;BME280;28752;48.266;7.402;2023-08-12T06:00:25;99552.50;;;26.16;57.78
43147;BME280;28752;48.266;7.402;2023-08-12T06:02:50;99545.50;;;26.03;58.11
43147;BME280;28752;48.266;7.402;2023-08-12T06:05:16;99548.16;;;26.15;58.12
43147;BME280;28752;48.266;7.402;2023-08-12T06:07:41;99555.28;;;26.55;57.60
43147;BME280;28752;48.266;7.402;2023-08-12T06:10:06;99552.13;;;27.19;55.34
43147;BME280;28752;48.266;7.402;2023-08-12T06:12:32;99545.94;;;27.68;54.17
43147;BME280;28752;48.266;7.402;2023-08-12T06:14:57;99537.09;;;27.83;53.21
43147;BME280;28752;48.266;7.402;2023-08-12T06:17:23;99528.50;;;28.24;52.28
43147;BME280;28752;48.266;7.402;2023-08-12T06:19:48;99531.06;;;28.41;51.68
43147;BME280;28752;48.266;7.402;2023-08-12T06:22:13;99536.88;;;28.92;51.15
43147;BME280;28752;48.266;7.402;2023-08-12T06:24:38;99539.31;;;28.88;50.61
43147;BME280;28752;48.266;7.402;2023-08-12T06:27:04;99534.13;;;29.40;50.04
43147;BME280;28752;48.266;7.402;2023-08-12T06:29:29;99543.16;;;29.56;49.69
43147;BME280;28752;48.266;7.402;2023-08-12T06:31:54;99541.63;;;30.22;47.96
43147;BME280;28752;48.266;7.402;2023-08-12T06:34:20;99547.63;;;30.34;47.52
43147;BME280;28752;48.266;7.402;2023-08-12T06:36:45;99551.19;;;30.60;47.48
43147;BME280;28752;48.266;7.402;2023-08-12T06:39:10;99542.16;;;29.88;48.01
43147;BME280;28752;48.266;7.402;2023-08-12T06:41:35;99555.28;;;30.37;47.47
43147;BME280;28752;48.266;7.402;2023-08-12T06:44:01;99559.78;;;31.24;45.58
43147;BME280;28752;48.266;7.402;2023-08-12T06:46:26;99555.28;;;30.63;46.33
43147;BME280;28752;48.266;7.402;2023-08-12T06:48:51;99554.63;;;29.63;48.28
43147;BME280;28752;48.266;7.402;2023-08-12T06:51:17;99542.59;;;29.59;48.73
43147;BME280;28752;48.266;7.402;2023-08-12T06:53:42;99545.63;;;29.63;49.03
43147;BME280;28752;48.266;7.402;2023-08-12T06:56:07;99537.91;;;29.44;49.43
43147;BME280;28752;48.266;7.402;2023-08-12T06:58:32;99537.91;;;29.39;49.61
43147;BME280;28752;48.266;7.402;2023-08-12T07:00:58;99538.00;;;30.88;47.96
43147;BME280;28752;48.266;7.402;2023-08-12T07:03:24;99541.25;;;33.23;43.29
43147;BME280;28752;48.266;7.402;2023-08-12T07:05:49;99538.44;;;34.84;39.75
43147;BME280;28752;48.266;7.402;2023-08-12T07:08:15;99535.03;;;33.93;40.20
43147;BME280;28752;48.266;7.402;2023-08-12T07:10:41;99554.78;;;33.76;41.17
43147;BME280;28752;48.266;7.402;2023-08-12T07:13:06;99559.00;;;33.69;40.81
43147;BME280;28752;48.266;7.402;2023-08-12T07:15:32;99551.03;;;33.29;41.59
43147;BME280;28752;48.266;7.402;2023-08-12T07:17:57;99550.63;;;32.92;42.22
43147;BME280;28752;48.266;7.402;2023-08-12T07:20:24;99544.44;;;33.30;42.23
43147;BME280;28752;48.266;7.402;2023-08-12T07:22:50;99539.44;;;33.75;40.77
43147;BME280;28752;48.266;7.402;2023-08-12T07:25:15;99535.63;;;35.03;39.48
43147;BME280;28752;48.266;7.402;2023-08-12T07:27:40;99528.88;;;36.41;37.52
43147;BME280;28752;48.266;7.402;2023-08-12T07:30:06;99538.81;;;36.51;36.41
43147;BME280;28752;48.266;7.402;2023-08-12T07:32:33;99520.84;;;34.85;38.75
43147;BME280;28752;48.266;7.402;2023-08-12T07:34:58;99514.84;;;34.03;40.82
43147;BME280;28752;48.266;7.402;2023-08-12T07:37:24;99519.66;;;32.92;43.75
43147;BME280;28752;48.266;7.402;2023-08-12T07:39:49;99527.38;;;31.92;46.35
43147;BME280;28752;48.266;7.402;2023-08-12T07:42:14;99503.50;;;31.08;49.52
43147;BME280;28752;48.266;7.402;2023-08-12T07:44:40;99487.75;;;29.40;52.43
43147;BME280;28752;48.266;7.402;2023-08-12T07:47:05;99499.66;;;29.18;54.41
43147;BME280;28752;48.266;7.402;2023-08-12T07:49:30;99533.84;;;28.83;57.28
43147;BME280;28752;48.266;7.402;2023-08-12T07:51:55;99557.19;;;28.69;58.43
43147;BME280;28752;48.266;7.402;2023-08-12T07:54:21;99561.28;;;28.39;58.75
43147;BME280;28752;48.266;7.402;2023-08-12T07:56:46;99543.97;;;28.50;59.78
43147;BME280;28752;48.266;7.402;2023-08-12T07:59:11;99541.22;;;28.88;59.18
43147;BME280;28752;48.266;7.402;2023-08-12T08:01:36;99544.84;;;29.09;57.06
43147;BME280;28752;48.266;7.402;2023-08-12T08:04:02;99533.03;;;29.46;57.06
43147;BME280;28752;48.266;7.402;2023-08-12T08:06:27;99554.91;;;29.77;56.28
43147;BME280;28752;48.266;7.402;2023-08-12T08:08:54;99553.53;;;29.69;55.75
43147;BME280;28752;48.266;7.402;2023-08-12T08:11:20;99535.00;;;29.66;55.29
43147;BME280;28752;48.266;7.402;2023-08-12T08:13:46;99547.88;;;30.27;54.39
43147;BME280;28752;48.266;7.402;2023-08-12T08:16:11;99530.13;;;30.61;53.55
43147;BME280;28752;48.266;7.402;2023-08-12T08:18:36;99548.72;;;30.18;52.86
43147;BME280;28752;48.266;7.402;2023-08-12T08:21:01;99555.25;;;30.68;52.80
43147;BME280;28752;48.266;7.402;2023-08-12T08:23:27;99564.22;;;30.94;52.44
43147;BME280;28752;48.266;7.402;2023-08-12T08:25:52;99562.81;;;31.12;52.39
43147;BME280;28752;48.266;7.402;2023-08-12T08:28:17;99558.38;;;31.37;51.85
43147;BME280;28752;48.266;7.402;2023-08-12T08:30:43;99559.03;;;31.68;50.70
43147;BME280;28752;48.266;7.402;2023-08-12T08:33:08;99556.47;;;31.82;50.06
43147;BME280;28752;48.266;7.402;2023-08-12T08:35:33;99545.66;;;32.01;49.52
43147;BME280;28752;48.266;7.402;2023-08-12T08:37:58;99562.03;;;32.06;48.60
43147;BME280;28752;48.266;7.402;2023-08-12T08:40:25;99555.72;;;32.46;48.45
43147;BME280;28752;48.266;7.402;2023-08-12T08:42:52;99554.06;;;32.50;47.01
43147;BME280;28752;48.266;7.402;2023-08-12T08:45:21;99554.44;;;32.38;47.32
43147;BME280;28752;48.266;7.402;2023-08-12T08:47:49;99556.28;;;31.68;48.46
43147;BME280;28752;48.266;7.402;2023-08-12T08:50:17;99557.56;;;31.26;49.41
43147;BME280;28752;48.266;7.402;2023-08-12T08:52:42;99559.78;;;31.24;50.22
43147;BME280;28752;48.266;7.402;2023-08-12T08:55:09;99558.78;;;30.99;50.36
43147;BME280;28752;48.266;7.402;2023-08-12T08:57:35;99550.56;;;30.99;50.74
43147;BME280;28752;48.266;7.402;2023-08-12T09:00:02;99554.66;;;31.02;49.11
43147;BME280;28752;48.266;7.402;2023-08-12T09:02:29;99546.16;;;31.09;49.10
43147;BME280;28752;48.266;7.402;2023-08-12T09:04:54;99546.88;;;31.35;49.13
43147;BME280;28752;48.266;7.402;2023-08-12T09:07:20;99542.94;;;31.57;49.01
43147;BME280;28752;48.266;7.402;2023-08-12T09:09:48;99548.13;;;31.63;49.04
43147;BME280;28752;48.266;7.402;2023-08-12T09:12:18;99543.44;;;32.09;48.16
43147;BME280;28752;48.266;7.402;2023-08-12T09:14:43;99528.78;;;32.29;47.40
43147;BME280;28752;48.266;7.402;2023-08-12T09:17:09;99535.88;;;32.59;47.73
43147;BME280;28752;48.266;7.402;2023-08-12T09:19:35;99524.41;;;32.81;47.42
43147;BME280;28752;48.266;7.402;2023-08-12T09:22:03;99530.19;;;33.04;46.76
43147;BME280;28752;48.266;7.402;2023-08-12T09:24:28;99526.16;;;32.72;44.85
43147;BME280;28752;48.266;7.402;2023-08-12T09:26:55;99529.00;;;32.62;45.88
43147;BME280;28752;48.266;7.402;2023-08-12T09:29:24;99532.41;;;32.78;46.32
43147;BME280;28752;48.266;7.402;2023-08-12T09:31:54;99518.53;;;32.69;46.09
43147;BME280;28752;48.266;7.402;2023-08-12T09:34:19;99531.25;;;32.54;47.04
43147;BME280;28752;48.266;7.402;2023-08-12T09:36:44;99528.91;;;32.42;46.29
43147;BME280;28752;48.266;7.402;2023-08-12T09:39:12;99525.50;;;32.27;46.55
43147;BME280;28752;48.266;7.402;2023-08-12T09:41:38;99507.91;;;32.33;46.81
43147;BME280;28752;48.266;7.402;2023-08-12T09:44:05;99521.94;;;32.55;46.17
43147;BME280;28752;48.266;7.402;2023-08-12T09:46:32;99520.38;;;32.73;45.79
43147;BME280;28752;48.266;7.402;2023-08-12T09:48:58;99509.53;;;32.34;46.54
43147;BME280;28752;48.266;7.402;2023-08-12T09:51:23;99516.13;;;32.33;46.63
43147;BME280;28752;48.266;7.402;2023-08-12T09:53:49;99509.38;;;32.25;46.64
43147;BME280;28752;48.266;7.402;2023-08-12T09:56:19;99514.94;;;32.15;46.95
43147;BME280;28752;48.266;7.402;2023-08-12T09:58:48;99520.97;;;32.12;47.07
43147;BME280;28752;48.266;7.402;2023-08-12T10:01:18;99523.88;;;32.26;47.18
43147;BME280;28752;48.266;7.402;2023-08-12T10:03:49;99525.97;;;32.34;47.09
43147;BME280;28752;48.266;7.402;2023-08-12T10:06:16;99534.00;;;32.54;47.18
43147;BME280;28752;48.266;7.402;2023-08-12T10:08:43;99540.88;;;32.52;47.50
43147;BME280;28752;48.266;7.402;2023-08-12T10:11:09;99545.84;;;32.50;47.04
43147;BME280;28752;48.266;7.402;2023-08-12T10:13:35;99538.91;;;32.57;47.04
43147;BME280;28752;48.266;7.402;2023-08-12T10:16:01;99535.22;;;32.72;47.79
43147;BME280;28752;48.266;7.402;2023-08-12T10:18:28;99541.44;;;32.78;46.43
43147;BME280;28752;48.266;7.402;2023-08-12T10:20:57;99536.91;;;32.68;46.36
43147;BME280;28752;48.266;7.402;2023-08-12T10:23:25;99536.13;;;32.33;46.81
43147;BME280;28752;48.266;7.402;2023-08-12T10:25:53;99551.94;;;32.02;47.33
43147;BME280;28752;48.266;7.402;2023-08-12T10:28:20;99551.97;;;31.52;47.97
43147;BME280;28752;48.266;7.402;2023-08-12T10:30:45;99526.53;;;30.86;51.61
43147;BME280;28752;48.266;7.402;2023-08-12T10:33:14;99529.06;;;30.57;54.50
43147;BME280;28752;48.266;7.402;2023-08-12T10:35:48;99513.78;;;30.25;55.55
43147;BME280;28752;48.266;7.402;2023-08-12T10:38:17;99500.94;;;30.00;57.95
43147;BME280;28752;48.266;7.402;2023-08-12T10:40:43;99514.59;;;29.94;59.34
43147;BME280;28752;48.266;7.402;2023-08-12T10:43:08;99531.50;;;29.86;60.31
43147;BME280;28752;48.266;7.402;2023-08-12T10:45:46;99544.63;;;30.10;60.77
43147;BME280;28752;48.266;7.402;2023-08-12T10:48:24;99538.91;;;30.42;61.08
43147;BME280;28752;48.266;7.402;2023-08-12T10:50:53;99539.34;;;30.91;60.01
43147;BME280;28752;48.266;7.402;2023-08-12T10:55:48;99549.91;;;31.28;57.06
43147;BME280;28752;48.266;7.402;2023-08-12T10:58:27;99545.28;;;31.18;57.51
43147;BME280;28752;48.266;7.402;2023-08-12T11:00:56;99540.38;;;31.15;59.61
43147;BME280;28752;48.266;7.402;2023-08-12T11:03:22;99541.50;;;31.09;57.84
43147;BME280;28752;48.266;7.402;2023-08-12T11:05:48;99539.53;;;31.25;57.38
43147;BME280;28752;48.266;7.402;2023-08-12T11:08:13;99550.63;;;31.49;56.77
43147;BME280;28752;48.266;7.402;2023-08-12T11:10:39;99547.06;;;31.49;56.86
43147;BME280;28752;48.266;7.402;2023-08-12T11:13:04;99554.72;;;31.57;56.07
43147;BME280;28752;48.266;7.402;2023-08-12T11:15:33;99548.44;;;31.51;55.47
43147;BME280;28752;48.266;7.402;2023-08-12T11:18:23;99550.34;;;31.51;54.89
43147;BME280;28752;48.266;7.402;2023-08-12T11:20:49;99542.22;;;31.85;53.78
43147;BME280;28752;48.266;7.402;2023-08-12T11:23:14;99534.78;;;31.91;53.65
43147;BME280;28752;48.266;7.402;2023-08-12T11:25:41;99538.28;;;32.36;53.53
43147;BME280;28752;48.266;7.402;2023-08-12T11:28:07;99548.25;;;32.86;52.15
43147;BME280;28752;48.266;7.402;2023-08-12T11:30:33;99530.72;;;33.06;49.97
43147;BME280;28752;48.266;7.402;2023-08-12T11:33:00;99527.16;;;33.05;49.74
43147;BME280;28752;48.266;7.402;2023-08-12T11:35:26;99526.16;;;32.96;50.45
43147;BME280;28752;48.266;7.402;2023-08-12T11:37:54;99526.44;;;33.19;50.11
43147;BME280;28752;48.266;7.402;2023-08-12T11:40:20;99510.97;;;33.28;50.11
43147;BME280;28752;48.266;7.402;2023-08-12T11:42:47;99503.72;;;33.56;51.19
43147;BME280;28752;48.266;7.402;2023-08-12T11:45:15;99515.38;;;33.67;49.65
43147;BME280;28752;48.266;7.402;2023-08-12T11:47:41;99504.88;;;33.74;48.92
43147;BME280;28752;48.266;7.402;2023-08-12T11:50:11;99515.66;;;34.04;49.21
43147;BME280;28752;48.266;7.402;2023-08-12T11:52:37;99513.72;;;34.04;48.30
43147;BME280;28752;48.266;7.402;2023-08-12T11:55:03;99522.09;;;34.13;48.48
43147;BME280;28752;48.266;7.402;2023-08-12T11:57:30;99516.16;;;34.25;47.35
43147;BME280;28752;48.266;7.402;2023-08-12T12:00:08;99516.66;;;34.27;47.64
43147;BME280;28752;48.266;7.402;2023-08-12T12:02:46;99517.31;;;34.51;47.68
43147;BME280;28752;48.266;7.402;2023-08-12T12:05:12;99508.34;;;34.13;47.85
43147;BME280;28752;48.266;7.402;2023-08-12T12:07:38;99509.56;;;34.40;48.22
43147;BME280;28752;48.266;7.402;2023-08-12T12:10:04;99500.53;;;34.20;47.80
43147;BME280;28752;48.266;7.402;2023-08-12T12:12:33;99508.00;;;34.00;47.63
43147;BME280;28752;48.266;7.402;2023-08-12T12:14:58;99503.16;;;33.78;47.12
43147;BME280;28752;48.266;7.402;2023-08-12T12:17:24;99506.59;;;34.03;47.69
43147;BME280;28752;48.266;7.402;2023-08-12T12:19:57;99498.84;;;33.72;47.04
43147;BME280;28752;48.266;7.402;2023-08-12T12:22:28;99492.38;;;33.63;47.10
43147;BME280;28752;48.266;7.402;2023-08-12T12:24:57;99487.50;;;33.79;47.26
43147;BME280;28752;48.266;7.402;2023-08-12T12:27:24;99476.16;;;33.99;47.08
43147;BME280;28752;48.266;7.402;2023-08-12T12:29:49;99474.88;;;34.11;47.09
43147;BME280;28752;48.266;7.402;2023-08-12T12:32:18;99478.63;;;34.34;46.83
43147;BME280;28752;48.266;7.402;2023-08-12T12:34:43;99489.72;;;34.29;46.13
43147;BME280;28752;48.266;7.402;2023-08-12T12:37:08;99488.59;;;33.78;46.29
43147;BME280;28752;48.266;7.402;2023-08-12T12:39:34;99493.03;;;33.93;46.71
43147;BME280;28752;48.266;7.402;2023-08-12T12:41:59;99486.81;;;33.68;45.91
43147;BME280;28752;48.266;7.402;2023-08-12T12:44:25;99493.72;;;34.17;45.04
43147;BME280;28752;48.266;7.402;2023-08-12T12:46:50;99491.94;;;34.27;45.77
43147;BME280;28752;48.266;7.402;2023-08-12T12:49:16;99499.66;;;34.25;46.40
43147;BME280;28752;48.266;7.402;2023-08-12T12:51:41;99495.44;;;34.13;43.97
43147;BME280;28752;48.266;7.402;2023-08-12T12:54:06;99491.97;;;34.08;44.71
43147;BME280;28752;48.266;7.402;2023-08-12T12:56:32;99483.75;;;33.89;43.50
43147;BME280;28752;48.266;7.402;2023-08-12T12:58:57;99491.53;;;34.00;44.46